sensor_id;sensor_type;location;lat;lon;timestamp;pressure;altitude;pressure_sealevel;temperature;humidity
56992;BME280;42885;49.754;18.636;2022-08-05T00:01:29;98263.87;;;19.55;100.00
56992;BME280;42885;49.754;18.636;2022-08-05T00:04:00;98263.34;;;19.51;100.00
56992;BME280;42885;49.754;18.636;2022-08-05T00:06:31;98263.91;;;19.41;100.00
56992;BME280;42885;49.754;18.636;2022-08-05T00:09:04;98266.42;;;19.61;100.00
56992;BME280;42885;49.754;18.636;2022-08-05T00:11:35;98263.69;;;19.34;100.00
56992;BME280;42885;49.754;18.636;2022-08-05T00:14:07;98261.45;;;19.30;100.00
56992;BME280;42885;49.754;18.636;2022-08-05T00:16:37;98267.94;;;19.31;100.00
56992;BME280;42885;49.754;18.636;2022-08-05T00:19:08;98267.94;;;19.31;100.00
56992;BME280;42885;49.754;18.636;2022-08-05T00:21:39;98265.73;;;19.26;100.00
56992;BME280;42885;49.754;18.636;2022-08-05T00:24:10;98265.15;;;19.33;100.00
56992;BME280;42885;49.754;18.636;2022-08-05T00:26:40;98262.70;;;19.35;100.00
56992;BME280;42885;49.754;18.636;2022-08-05T00:29:11;98265.80;;;19.31;100.00
56992;BME280;42885;49.754;18.636;2022-08-05T00:31:43;98260.12;;;19.62;100.00
56992;BME280;42885;49.754;18.636;2022-08-05T00:34:13;98257.05;;;19.34;100.00
56992;BME280;42885;49.754;18.636;2022-08-05T00:36:44;98255.80;;;19.01;100.00
56992;BME280;42885;49.754;18.636;2022-08-05T00:39:15;98262.31;;;19.16;100.00
56992;BME280;42885;49.754;18.636;2022-08-05T00:41:47;98254.84;;;19.48;100.00
56992;BME280;42885;49.754;18.636;2022-08-05T00:44:17;98257.69;;;19.18;100.00
56992;BME280;42885;49.754;18.636;2022-08-05T00:46:48;98260.55;;;19.07;100.00
56992;BME280;42885;49.754;18.636;2022-08-05T00:49:19;98260.11;;;19.11;100.00
56992;BME280;42885;49.754;18.636;2022-08-05T00:51:50;98256.04;;;18.93;100.00
56992;BME280;42885;49.754;18.636;2022-08-05T00:54:21;98252.40;;;18.80;100.00
56992;BME280;42885;49.754;18.636;2022-08-05T00:56:51;98251.95;;;18.85;100.00
56992;BME280;42885;49.754;18.636;2022-08-05T00:59:22;98254.38;;;18.92;100.00
56992;BME280;42885;49.754;18.636;2022-08-05T01:01:53;98252.25;;;19.06;100.00
56992;BME280;42885;49.754;18.636;2022-08-05T01:04:24;98251.62;;;18.98;100.00
56992;BME280;42885;49.754;18.636;2022-08-05T01:06:54;98253.28;;;18.71;100.00
56992;BME280;42885;49.754;18.636;2022-08-05T01:09:25;98247.95;;;18.81;100.00
56992;BME280;42885;49.754;18.636;2022-08-05T01:11:58;98243.56;;;18.76;100.00
56992;BME280;42885;49.754;18.636;2022-08-05T01:14:44;98246.21;;;18.76;100.00
56992;BME280;42885;49.754;18.636;2022-08-05T01:17:28;98241.21;;;18.73;100.00
56992;BME280;42885;49.754;18.636;2022-08-05T01:20:17;98242.78;;;18.93;100.00
56992;BME280;42885;49.754;18.636;2022-08-05T01:23:16;98240.03;;;18.85;100.00
56992;BME280;42885;49.754;18.636;2022-08-05T01:34:21;98230.50;;;18.64;100.00
56992;BME280;42885;49.754;18.636;2022-08-05T01:37:11;98239.27;;;18.65;100.00
56992;BME280;42885;49.754;18.636;2022-08-05T01:39:43;98236.28;;;18.40;100.00
56992;BME280;42885;49.754;18.636;2022-08-05T01:42:18;98236.81;;;18.29;100.00
56992;BME280;42885;49.754;18.636;2022-08-05T01:44:50;98239.38;;;18.25;100.00
56992;BME280;42885;49.754;18.636;2022-08-05T01:47:23;98236.03;;;18.33;100.00
56992;BME280;42885;49.754;18.636;2022-08-05T01:49:55;98230.55;;;18.44;100.00
56992;BME280;42885;49.754;18.636;2022-08-05T01:52:27;98228.66;;;18.27;100.00
56992;BME280;42885;49.754;18.636;2022-08-05T01:55:01;98231.55;;;18.34;100.00
56992;BME280;42885;49.754;18.636;2022-08-05T01:57:35;98230.64;;;18.39;100.00
56992;BME280;42885;49.754;18.636;2022-08-05T02:00:08;98231.33;;;18.41;100.00
56992;BME280;42885;49.754;18.636;2022-08-05T02:02:42;98229.63;;;18.26;100.00
56992;BME280;42885;49.754;18.636;2022-08-05T02:05:14;98224.63;;;18.23;100.00
56992;BME280;42885;49.754;18.636;2022-08-05T02:07:46;98229.85;;;18.19;100.00
56992;BME280;42885;49.754;18.636;2022-08-05T02:10:17;98231.86;;;18.21;100.00
56992;BME280;42885;49.754;18.636;2022-08-05T02:12:53;98225.66;;;18.26;100.00
56992;BME280;42885;49.754;18.636;2022-08-05T02:15:33;98225.57;;;18.32;100.00
56992;BME280;42885;49.754;18.636;2022-08-05T02:18:10;98224.75;;;18.31;100.00
56992;BME280;42885;49.754;18.636;2022-08-05T02:20:59;98217.59;;;18.18;100.00
56992;BME280;42885;49.754;18.636;2022-08-05T02:23:25;98219.88;;;17.97;100.00
56992;BME280;42885;49.754;18.636;2022-08-05T02:25:59;98214.27;;;18.06;100.00
56992;BME280;42885;49.754;18.636;2022-08-05T02:28:33;98217.25;;;18.16;100.00
56992;BME280;42885;49.754;18.636;2022-08-05T02:31:15;98214.20;;;17.92;100.00
56992;BME280;42885;49.754;18.636;2022-08-05T02:34:02;98215.59;;;17.76;100.00
56992;BME280;42885;49.754;18.636;2022-08-05T02:36:25;98216.08;;;17.75;100.00
56992;BME280;42885;49.754;18.636;2022-08-05T02:38:56;98209.45;;;17.85;100.00
56992;BME280;42885;49.754;18.636;2022-08-05T02:41:28;98213.00;;;17.80;100.00
56992;BME280;42885;49.754;18.636;2022-08-05T02:44:00;98213.84;;;17.71;100.00
56992;BME280;42885;49.754;18.636;2022-08-05T02:46:35;98208.55;;;17.71;100.00
56992;BME280;42885;49.754;18.636;2022-08-05T02:49:09;98212.27;;;17.74;100.00
56992;BME280;42885;49.754;18.636;2022-08-05T02:51:43;98213.59;;;17.74;100.00
56992;BME280;42885;49.754;18.636;2022-08-05T02:54:14;98206.89;;;17.70;100.00
56992;BME280;42885;49.754;18.636;2022-08-05T02:56:45;98202.02;;;17.75;100.00
56992;BME280;42885;49.754;18.636;2022-08-05T02:59:18;98206.62;;;17.73;100.00
56992;BME280;42885;49.754;18.636;2022-08-05T03:01:51;98200.97;;;17.52;100.00
56992;BME280;42885;49.754;18.636;2022-08-05T03:04:25;98204.93;;;17.72;100.00
56992;BME280;42885;49.754;18.636;2022-08-05T03:06:57;98202.37;;;17.46;100.00
56992;BME280;42885;49.754;18.636;2022-08-05T03:09:28;98198.11;;;17.50;100.00
56992;BME280;42885;49.754;18.636;2022-08-05T03:11:59;98197.27;;;17.59;100.00
56992;BME280;42885;49.754;18.636;2022-08-05T03:14:30;98196.94;;;17.68;100.00
56992;BME280;42885;49.754;18.636;2022-08-05T03:17:02;98201.25;;;17.59;100.00
56992;BME280;42885;49.754;18.636;2022-08-05T03:19:33;98199.31;;;17.61;100.00
56992;BME280;42885;49.754;18.636;2022-08-05T03:22:03;98201.06;;;17.56;100.00
56992;BME280;42885;49.754;18.636;2022-08-05T03:24:34;98201.19;;;17.55;100.00
56992;BME280;42885;49.754;18.636;2022-08-05T03:27:06;98198.83;;;17.52;100.00
56992;BME280;42885;49.754;18.636;2022-08-05T03:29:37;98197.44;;;17.57;100.00
56992;BME280;42885;49.754;18.636;2022-08-05T03:32:10;98202.66;;;17.43;100.00
56992;BME280;42885;49.754;18.636;2022-08-05T03:34:42;98201.12;;;17.60;100.00
56992;BME280;42885;49.754;18.636;2022-08-05T03:37:13;98205.45;;;17.52;100.00
56992;BME280;42885;49.754;18.636;2022-08-05T03:39:53;98209.51;;;17.30;100.00
56992;BME280;42885;49.754;18.636;2022-08-05T03:42:23;98206.41;;;17.41;100.00
56992;BME280;42885;49.754;18.636;2022-08-05T03:44:54;98205.66;;;17.44;100.00
56992;BME280;42885;49.754;18.636;2022-08-05T03:47:25;98207.11;;;17.53;100.00
56992;BME280;42885;49.754;18.636;2022-08-05T03:49:56;98198.34;;;17.62;100.00
56992;BME280;42885;49.754;18.636;2022-08-05T03:52:30;98210.86;;;17.70;100.00
56992;BME280;42885;49.754;18.636;2022-08-05T03:55:05;98204.19;;;17.66;100.00
56992;BME280;42885;49.754;18.636;2022-08-05T03:57:38;98198.53;;;17.74;100.00
56992;BME280;42885;49.754;18.636;2022-08-05T04:00:12;98205.63;;;17.54;100.00
56992;BME280;42885;49.754;18.636;2022-08-05T04:02:47;98196.73;;;17.85;100.00
56992;BME280;42885;49.754;18.636;2022-08-05T04:05:19;98199.21;;;17.86;100.00
56992;BME280;42885;49.754;18.636;2022-08-05T04:07:50;98195.75;;;17.86;100.00
56992;BME280;42885;49.754;18.636;2022-08-05T04:10:21;98201.67;;;17.74;100.00
56992;BME280;42885;49.754;18.636;2022-08-05T04:12:52;98205.50;;;17.56;100.00
56992;BME280;42885;49.754;18.636;2022-08-05T04:15:23;98199.50;;;17.93;100.00
56992;BME280;42885;49.754;18.636;2022-08-05T04:17:54;98200.40;;;17.98;100.00
56992;BME280;42885;49.754;18.636;2022-08-05T04:20:25;98196.64;;;17.91;100.00
56992;BME280;42885;49.754;18.636;2022-08-05T04:22:57;98192.23;;;18.05;100.00
56992;BME280;42885;49.754;18.636;2022-08-05T04:25:28;98189.73;;;17.94;100.00
56992;BME280;42885;49.754;18.636;2022-08-05T04:27:58;98188.11;;;17.97;100.00
56992;BME280;42885;49.754;18.636;2022-08-05T04:30:29;98185.13;;;18.15;100.00
56992;BME280;42885;49.754;18.636;2022-08-05T04:33:00;98183.62;;;18.27;100.00
56992;BME280;42885;49.754;18.636;2022-08-05T04:35:31;98179.72;;;18.31;100.00
56992;BME280;42885;49.754;18.636;2022-08-05T04:38:02;98177.22;;;18.43;100.00
56992;BME280;42885;49.754;18.636;2022-08-05T04:40:38;98176.95;;;18.23;100.00
56992;BME280;42885;49.754;18.636;2022-08-05T04:43:09;98177.63;;;18.49;100.00
56992;BME280;42885;49.754;18.636;2022-08-05T04:45:40;98180.15;;;18.64;100.00
56992;BME280;42885;49.754;18.636;2022-08-05T04:48:12;98178.95;;;18.49;100.00
56992;BME280;42885;49.754;18.636;2022-08-05T04:50:43;98179.36;;;18.68;100.00
56992;BME280;42885;49.754;18.636;2022-08-05T04:53:16;98178.00;;;19.06;100.00
56992;BME280;42885;49.754;18.636;2022-08-05T04:55:47;98176.18;;;18.96;100.00
56992;BME280;42885;49.754;18.636;2022-08-05T04:58:18;98178.55;;;18.99;100.00
56992;BME280;42885;49.754;18.636;2022-08-05T05:00:49;98174.44;;;19.15;100.00
56992;BME280;42885;49.754;18.636;2022-08-05T05:03:20;98175.09;;;19.49;100.00
56992;BME280;42885;49.754;18.636;2022-08-05T05:05:50;98177.02;;;19.43;100.00
56992;BME280;42885;49.754;18.636;2022-08-05T05:08:22;98167.34;;;19.78;100.00
56992;BME280;42885;49.754;18.636;2022-08-05T05:10:53;98174.36;;;20.02;100.00
56992;BME280;42885;49.754;18.636;2022-08-05T05:13:24;98176.69;;;20.01;100.00
56992;BME280;42885;49.754;18.636;2022-08-05T05:15:55;98167.21;;;20.29;100.00
56992;BME280;42885;49.754;18.636;2022-08-05T05:18:26;98171.80;;;20.53;100.00
56992;BME280;42885;49.754;18.636;2022-08-05T05:20:57;98165.28;;;20.82;100.00
56992;BME280;42885;49.754;18.636;2022-08-05T05:23:28;98174.53;;;21.09;100.00
56992;BME280;42885;49.754;18.636;2022-08-05T05:26:03;98172.25;;;21.35;100.00
56992;BME280;42885;49.754;18.636;2022-08-05T05:28:32;98167.09;;;21.50;100.00
56992;BME280;42885;49.754;18.636;2022-08-05T05:31:03;98169.97;;;21.69;100.00
56992;BME280;42885;49.754;18.636;2022-08-05T05:33:34;98169.09;;;21.93;100.00
56992;BME280;42885;49.754;18.636;2022-08-05T05:36:05;98167.42;;;22.13;100.00
56992;BME280;42885;49.754;18.636;2022-08-05T05:38:35;98169.34;;;22.36;100.00
56992;BME280;42885;49.754;18.636;2022-08-05T05:41:07;98170.31;;;22.43;100.00
56992;BME280;42885;49.754;18.636;2022-08-05T05:43:37;98168.27;;;22.66;100.00
56992;BME280;42885;49.754;18.636;2022-08-05T05:46:08;98174.87;;;22.82;100.00
56992;BME280;42885;49.754;18.636;2022-08-05T05:48:41;98174.14;;;22.97;100.00
56992;BME280;42885;49.754;18.636;2022-08-05T05:51:17;98172.23;;;23.10;100.00
56992;BME280;42885;49.754;18.636;2022-08-05T05:53:50;98171.48;;;23.24;100.00
56992;BME280;42885;49.754;18.636;2022-08-05T05:56:22;98175.20;;;23.43;100.00
56992;BME280;42885;49.754;18.636;2022-08-05T05:58:57;98166.72;;;23.62;100.00
56992;BME280;42885;49.754;18.636;2022-08-05T06:01:28;98162.61;;;23.90;100.00
56992;BME280;42885;49.754;18.636;2022-08-05T06:03:58;98159.96;;;24.09;100.00
56992;BME280;42885;49.754;18.636;2022-08-05T06:06:29;98157.90;;;24.15;100.00
56992;BME280;42885;49.754;18.636;2022-08-05T06:09:00;98161.27;;;24.28;100.00
56992;BME280;42885;49.754;18.636;2022-08-05T06:11:32;98157.36;;;24.61;100.00
56992;BME280;42885;49.754;18.636;2022-08-05T06:14:04;98159.83;;;24.78;100.00
56992;BME280;42885;49.754;18.636;2022-08-05T06:16:41;98157.31;;;24.95;100.00
56992;BME280;42885;49.754;18.636;2022-08-05T06:19:07;98158.69;;;24.91;100.00
56992;BME280;42885;49.754;18.636;2022-08-05T06:21:44;98158.14;;;25.07;100.00
56992;BME280;42885;49.754;18.636;2022-08-05T06:24:15;98164.47;;;25.21;100.00
56992;BME280;42885;49.754;18.636;2022-08-05T06:26:49;98164.98;;;25.42;100.00
56992;BME280;42885;49.754;18.636;2022-08-05T06:29:20;98166.80;;;25.67;100.00
56992;BME280;42885;49.754;18.636;2022-08-05T06:31:51;98164.46;;;25.86;100.00
56992;BME280;42885;49.754;18.636;2022-08-05T06:34:23;98164.45;;;25.97;100.00
56992;BME280;42885;49.754;18.636;2022-08-05T06:36:54;98160.33;;;26.01;100.00
56992;BME280;42885;49.754;18.636;2022-08-05T06:39:26;98166.41;;;25.99;100.00
56992;BME280;42885;49.754;18.636;2022-08-05T06:41:58;98158.47;;;26.23;100.00
56992;BME280;42885;49.754;18.636;2022-08-05T06:44:33;98157.62;;;26.41;100.00
56992;BME280;42885;49.754;18.636;2022-08-05T06:47:04;98160.38;;;26.54;100.00
56992;BME280;42885;49.754;18.636;2022-08-05T06:49:35;98162.80;;;26.66;100.00
56992;BME280;42885;49.754;18.636;2022-08-05T06:52:06;98151.40;;;26.82;100.00
56992;BME280;42885;49.754;18.636;2022-08-05T06:54:38;98159.05;;;27.03;100.00
56992;BME280;42885;49.754;18.636;2022-08-05T06:57:09;98152.34;;;27.16;100.00
56992;BME280;42885;49.754;18.636;2022-08-05T06:59:44;98147.89;;;27.06;100.00
56992;BME280;42885;49.754;18.636;2022-08-05T07:02:23;98150.92;;;27.34;100.00
56992;BME280;42885;49.754;18.636;2022-08-05T07:05:13;98151.55;;;27.29;100.00
56992;BME280;42885;49.754;18.636;2022-08-05T07:07:47;98150.92;;;27.34;100.00
56992;BME280;42885;49.754;18.636;2022-08-05T07:10:19;98152.18;;;27.52;100.00
56992;BME280;42885;49.754;18.636;2022-08-05T07:12:50;98155.44;;;27.71;100.00
56992;BME280;42885;49.754;18.636;2022-08-05T07:15:42;98151.38;;;27.51;100.00
56992;BME280;42885;49.754;18.636;2022-08-05T07:18:31;98154.28;;;27.76;100.00
56992;BME280;42885;49.754;18.636;2022-08-05T07:21:09;98154.59;;;27.91;100.00
56992;BME280;42885;49.754;18.636;2022-08-05T07:23:41;98155.31;;;27.96;100.00
56992;BME280;42885;49.754;18.636;2022-08-05T07:26:15;98160.68;;;28.09;100.00
56992;BME280;42885;49.754;18.636;2022-08-05T07:28:48;98164.09;;;28.00;100.00
56992;BME280;42885;49.754;18.636;2022-08-05T07:31:22;98162.83;;;28.37;100.00
56992;BME280;42885;49.754;18.636;2022-08-05T07:33:52;98159.36;;;28.82;100.00
56992;BME280;42885;49.754;18.636;2022-08-05T07:36:30;98157.45;;;28.30;100.00
56992;BME280;42885;49.754;18.636;2022-08-05T07:39:32;98160.67;;;28.29;100.00
56992;BME280;42885;49.754;18.636;2022-08-05T07:42:07;98150.66;;;28.50;100.00
56992;BME280;42885;49.754;18.636;2022-08-05T07:44:56;98154.39;;;28.56;95.81
56992;BME280;42885;49.754;18.636;2022-08-05T07:47:30;98157.48;;;28.53;95.37
56992;BME280;42885;49.754;18.636;2022-08-05T07:50:15;98151.42;;;28.71;95.73
56992;BME280;42885;49.754;18.636;2022-08-05T07:52:47;98152.33;;;28.74;89.07
56992;BME280;42885;49.754;18.636;2022-08-05T07:55:18;98146.83;;;28.85;90.41
56992;BME280;42885;49.754;18.636;2022-08-05T07:57:58;98143.94;;;29.03;89.51
56992;BME280;42885;49.754;18.636;2022-08-05T08:00:50;98147.88;;;29.00;90.78
56992;BME280;42885;49.754;18.636;2022-08-05T08:03:22;98150.45;;;29.20;84.32
56992;BME280;42885;49.754;18.636;2022-08-05T08:06:00;98146.51;;;29.23;83.78
56992;BME280;42885;49.754;18.636;2022-08-05T08:08:31;98150.68;;;29.35;79.37
56992;BME280;42885;49.754;18.636;2022-08-05T08:11:02;98152.12;;;29.37;78.85
56992;BME280;42885;49.754;18.636;2022-08-05T08:13:35;98142.16;;;29.22;76.19
56992;BME280;42885;49.754;18.636;2022-08-05T08:16:06;98151.83;;;29.52;82.45
56992;BME280;42885;49.754;18.636;2022-08-05T08:18:37;98143.91;;;29.58;75.44
56992;BME280;42885;49.754;18.636;2022-08-05T08:21:08;98149.06;;;29.59;74.71
56992;BME280;42885;49.754;18.636;2022-08-05T08:23:59;98151.02;;;29.52;70.24
56992;BME280;42885;49.754;18.636;2022-08-05T08:26:30;98143.16;;;29.60;67.91
56992;BME280;42885;49.754;18.636;2022-08-05T08:29:01;98155.32;;;29.94;66.58
56992;BME280;42885;49.754;18.636;2022-08-05T08:31:41;98155.45;;;29.90;68.94
56992;BME280;42885;49.754;18.636;2022-08-05T08:34:22;98151.10;;;29.89;67.52
56992;BME280;42885;49.754;18.636;2022-08-05T08:36:56;98154.36;;;29.98;65.47
56992;BME280;42885;49.754;18.636;2022-08-05T08:39:27;98151.25;;;30.29;63.09
56992;BME280;42885;49.754;18.636;2022-08-05T08:41:58;98150.57;;;30.34;70.11
56992;BME280;42885;49.754;18.636;2022-08-05T08:44:32;98154.48;;;30.47;72.33
56992;BME280;42885;49.754;18.636;2022-08-05T08:47:07;98148.78;;;30.46;63.94
56992;BME280;42885;49.754;18.636;2022-08-05T08:49:45;98150.13;;;30.56;69.04
56992;BME280;42885;49.754;18.636;2022-08-05T08:52:23;98154.41;;;30.45;60.69
56992;BME280;42885;49.754;18.636;2022-08-05T08:54:53;98151.33;;;30.32;62.85
56992;BME280;42885;49.754;18.636;2022-08-05T08:57:26;98153.58;;;30.63;62.20
56992;BME280;42885;49.754;18.636;2022-08-05T09:00:07;98151.88;;;30.41;53.78
56992;BME280;42885;49.754;18.636;2022-08-05T09:02:38;98149.52;;;30.82;53.20
56992;BME280;42885;49.754;18.636;2022-08-05T09:05:11;98149.09;;;30.85;49.99
56992;BME280;42885;49.754;18.636;2022-08-05T09:07:42;98148.32;;;30.87;51.51
56992;BME280;42885;49.754;18.636;2022-08-05T09:10:13;98144.03;;;30.98;52.56
56992;BME280;42885;49.754;18.636;2022-08-05T09:12:44;98144.54;;;30.97;48.24
56992;BME280;42885;49.754;18.636;2022-08-05T09:15:15;98138.84;;;31.27;47.44
56992;BME280;42885;49.754;18.636;2022-08-05T09:17:46;98138.56;;;31.71;43.30
56992;BME280;42885;49.754;18.636;2022-08-05T09:20:16;98132.59;;;31.36;41.75
56992;BME280;42885;49.754;18.636;2022-08-05T09:23:05;98129.70;;;31.40;41.43
56992;BME280;42885;49.754;18.636;2022-08-05T09:25:41;98129.70;;;31.40;41.93
56992;BME280;42885;49.754;18.636;2022-08-05T09:28:22;98127.13;;;31.24;45.21
56992;BME280;42885;49.754;18.636;2022-08-05T09:31:07;98118.55;;;31.48;45.17
56992;BME280;42885;49.754;18.636;2022-08-05T09:33:53;98123.30;;;31.43;42.32
56992;BME280;42885;49.754;18.636;2022-08-05T09:36:43;98130.30;;;31.30;45.90
56992;BME280;42885;49.754;18.636;2022-08-05T09:39:16;98124.38;;;31.54;43.21
56992;BME280;42885;49.754;18.636;2022-08-05T09:42:04;98117.19;;;31.93;44.21
56992;BME280;42885;49.754;18.636;2022-08-05T09:44:39;98117.54;;;31.97;43.66
56992;BME280;42885;49.754;18.636;2022-08-05T09:47:15;98117.92;;;32.27;41.67
56992;BME280;42885;49.754;18.636;2022-08-05T09:50:12;98118.73;;;32.39;43.20
56992;BME280;42885;49.754;18.636;2022-08-05T09:52:42;98118.76;;;32.04;42.46
56992;BME280;42885;49.754;18.636;2022-08-05T09:55:14;98115.97;;;32.78;43.78
56992;BME280;42885;49.754;18.636;2022-08-05T09:57:46;98125.30;;;31.93;42.96
56992;BME280;42885;49.754;18.636;2022-08-05T10:00:19;98121.02;;;32.07;43.65
56992;BME280;42885;49.754;18.636;2022-08-05T10:02:54;98119.63;;;32.31;42.30
56992;BME280;42885;49.754;18.636;2022-08-05T10:05:28;98117.02;;;32.24;41.17
56992;BME280;42885;49.754;18.636;2022-08-05T10:08:07;98116.52;;;32.12;42.10
56992;BME280;42885;49.754;18.636;2022-08-05T10:10:46;98108.50;;;32.30;42.65
56992;BME280;42885;49.754;18.636;2022-08-05T10:13:35;98113.25;;;32.25;45.36
56992;BME280;42885;49.754;18.636;2022-08-05T10:16:04;98104.73;;;32.43;42.30
56992;BME280;42885;49.754;18.636;2022-08-05T10:18:40;98101.19;;;32.42;42.34
56992;BME280;42885;49.754;18.636;2022-08-05T10:21:17;98101.19;;;32.42;42.34
56992;BME280;42885;49.754;18.636;2022-08-05T10:23:50;98108.77;;;32.54;41.27
56992;BME280;42885;49.754;18.636;2022-08-05T10:26:30;98105.98;;;32.66;41.19
56992;BME280;42885;49.754;18.636;2022-08-05T10:29:05;98100.75;;;32.91;41.55
56992;BME280;42885;49.754;18.636;2022-08-05T10:31:43;98099.66;;;32.90;43.92
56992;BME280;42885;49.754;18.636;2022-08-05T10:34:14;98092.60;;;32.89;41.35
56992;BME280;42885;49.754;18.636;2022-08-05T10:36:46;98099.45;;;33.23;41.20
56992;BME280;42885;49.754;18.636;2022-08-05T10:39:24;98102.40;;;33.21;43.67
56992;BME280;42885;49.754;18.636;2022-08-05T10:41:58;98098.53;;;33.49;41.51
56992;BME280;42885;49.754;18.636;2022-08-05T10:44:31;98097.23;;;33.37;39.79
56992;BME280;42885;49.754;18.636;2022-08-05T10:47:10;98093.41;;;33.18;41.82
56992;BME280;42885;49.754;18.636;2022-08-05T10:50:06;98090.45;;;33.37;40.40
56992;BME280;42885;49.754;18.636;2022-08-05T10:52:49;98087.31;;;33.80;38.98
56992;BME280;42885;49.754;18.636;2022-08-05T10:55:26;98095.03;;;33.88;38.70
56992;BME280;42885;49.754;18.636;2022-08-05T10:58:09;98094.52;;;33.91;37.08
56992;BME280;42885;49.754;18.636;2022-08-05T11:00:50;98094.57;;;33.57;39.05
56992;BME280;42885;49.754;18.636;2022-08-05T11:03:16;98093.16;;;33.88;37.47
56992;BME280;42885;49.754;18.636;2022-08-05T11:06:06;98092.65;;;34.11;38.58
56992;BME280;42885;49.754;18.636;2022-08-05T11:08:38;98087.98;;;34.07;39.57
56992;BME280;42885;49.754;18.636;2022-08-05T11:13:59;98085.01;;;33.88;37.32
56992;BME280;42885;49.754;18.636;2022-08-05T11:16:31;98078.08;;;33.98;39.08
56992;BME280;42885;49.754;18.636;2022-08-05T11:19:31;98081.69;;;33.84;37.92
56992;BME280;42885;49.754;18.636;2022-08-05T11:27:50;98070.03;;;35.03;37.27
56992;BME280;42885;49.754;18.636;2022-08-05T11:30:30;98083.31;;;34.69;35.58
56992;BME280;42885;49.754;18.636;2022-08-05T11:33:51;98077.16;;;34.31;37.75
56992;BME280;42885;49.754;18.636;2022-08-05T11:36:12;98077.91;;;34.74;40.48
56992;BME280;42885;49.754;18.636;2022-08-05T11:38:49;98071.30;;;34.65;36.77
56992;BME280;42885;49.754;18.636;2022-08-05T11:41:29;98069.72;;;34.99;38.05
56992;BME280;42885;49.754;18.636;2022-08-05T11:44:09;98071.77;;;35.47;35.81
56992;BME280;42885;49.754;18.636;2022-08-05T11:46:51;98077.92;;;35.32;35.09
56992;BME280;42885;49.754;18.636;2022-08-05T11:49:24;98079.98;;;35.17;36.11
56992;BME280;42885;49.754;18.636;2022-08-05T11:51:59;98076.00;;;34.72;36.41
56992;BME280;42885;49.754;18.636;2022-08-05T11:54:32;98068.22;;;35.44;38.34
56992;BME280;42885;49.754;18.636;2022-08-05T11:57:05;98075.06;;;35.92;34.89
56992;BME280;42885;49.754;18.636;2022-08-05T11:59:38;98084.89;;;35.95;33.35
56992;BME280;42885;49.754;18.636;2022-08-05T12:02:09;98075.76;;;36.15;32.87
56992;BME280;42885;49.754;18.636;2022-08-05T12:04:46;98073.91;;;36.28;32.38
56992;BME280;42885;49.754;18.636;2022-08-05T12:07:25;98072.90;;;36.55;32.81
56992;BME280;42885;49.754;18.636;2022-08-05T12:09:57;98076.97;;;36.45;34.33
56992;BME280;42885;49.754;18.636;2022-08-05T12:12:29;98076.50;;;36.66;33.04
56992;BME280;42885;49.754;18.636;2022-08-05T12:15:01;98073.48;;;36.65;31.62
56992;BME280;42885;49.754;18.636;2022-08-05T12:17:37;98065.59;;;36.00;33.08
56992;BME280;42885;49.754;18.636;2022-08-05T12:20:10;98072.00;;;35.78;32.09
56992;BME280;42885;49.754;18.636;2022-08-05T12:22:41;98055.94;;;36.32;32.43
56992;BME280;42885;49.754;18.636;2022-08-05T12:25:12;98070.23;;;36.07;36.04
56992;BME280;42885;49.754;18.636;2022-08-05T12:27:45;98063.41;;;36.58;34.76
56992;BME280;42885;49.754;18.636;2022-08-05T12:30:20;98063.41;;;36.58;35.10
56992;BME280;42885;49.754;18.636;2022-08-05T12:32:52;98059.88;;;36.04;33.45
56992;BME280;42885;49.754;18.636;2022-08-05T12:35:24;98056.91;;;36.87;32.77
56992;BME280;42885;49.754;18.636;2022-08-05T12:37:58;98062.86;;;36.69;31.96
56992;BME280;42885;49.754;18.636;2022-08-05T12:40:31;98059.36;;;36.86;33.23
56992;BME280;42885;49.754;18.636;2022-08-05T12:43:05;98064.17;;;36.50;33.24
56992;BME280;42885;49.754;18.636;2022-08-05T12:45:50;98053.76;;;36.34;33.34
56992;BME280;42885;49.754;18.636;2022-08-05T12:48:22;98058.77;;;36.69;33.65
56992;BME280;42885;49.754;18.636;2022-08-05T12:51:14;98056.53;;;36.50;33.96
56992;BME280;42885;49.754;18.636;2022-08-05T12:53:48;98052.68;;;36.38;32.44
56992;BME280;42885;49.754;18.636;2022-08-05T12:56:23;98041.53;;;36.47;32.58
56992;BME280;42885;49.754;18.636;2022-08-05T12:59:18;98050.41;;;36.14;32.86
56992;BME280;42885;49.754;18.636;2022-08-05T13:04:40;98044.11;;;37.16;30.81
56992;BME280;42885;49.754;18.636;2022-08-05T13:07:16;98038.63;;;36.80;31.58
56992;BME280;42885;49.754;18.636;2022-08-05T13:09:50;98047.53;;;37.92;30.70
56992;BME280;42885;49.754;18.636;2022-08-05T13:12:22;98039.95;;;37.79;29.36
56992;BME280;42885;49.754;18.636;2022-08-05T13:14:58;98039.61;;;37.96;29.78
56992;BME280;42885;49.754;18.636;2022-08-05T13:17:53;98041.28;;;37.84;29.52
56992;BME280;42885;49.754;18.636;2022-08-05T13:20:35;98041.77;;;38.12;27.73
56992;BME280;42885;49.754;18.636;2022-08-05T13:23:06;98044.20;;;38.13;28.08
56992;BME280;42885;49.754;18.636;2022-08-05T13:25:37;98047.57;;;38.98;27.79
56992;BME280;42885;49.754;18.636;2022-08-05T13:28:08;98039.38;;;40.09;26.48
56992;BME280;42885;49.754;18.636;2022-08-05T13:30:39;98042.54;;;41.14;24.69
56992;BME280;42885;49.754;18.636;2022-08-05T13:33:09;98043.73;;;39.88;25.51
56992;BME280;42885;49.754;18.636;2022-08-05T13:35:39;98041.17;;;40.59;28.15
56992;BME280;42885;49.754;18.636;2022-08-05T13:38:10;98041.97;;;39.48;26.14
56992;BME280;42885;49.754;18.636;2022-08-05T13:40:42;98054.15;;;38.97;27.20
56992;BME280;42885;49.754;18.636;2022-08-05T13:43:14;98056.13;;;38.81;26.96